sensor_id;sensor_type;location;lat;lon;timestamp;P1;durP1;ratioP1;P2;durP2;ratioP2
41233;SDS011;26968;42.686;23.352;2023-06-22T00:01:52;13.35;;;10.23;;
41233;SDS011;26968;42.686;23.352;2023-06-22T00:04:17;18.95;;;11.02;;
41233;SDS011;26968;42.686;23.352;2023-06-22T00:06:43;13.98;;;10.52;;
41233;SDS011;26968;42.686;23.352;2023-06-22T00:09:08;14.90;;;10.98;;
41233;SDS011;26968;42.686;23.352;2023-06-22T00:11:35;17.02;;;11.10;;
41233;SDS011;26968;42.686;23.352;2023-06-22T00:14:04;13.48;;;10.77;;
41233;SDS011;26968;42.686;23.352;2023-06-22T00:16:30;13.02;;;9.98;;
41233;SDS011;26968;42.686;23.352;2023-06-22T00:18:57;17.48;;;10.80;;
41233;SDS011;26968;42.686;23.352;2023-06-22T00:21:25;18.80;;;10.88;;
41233;SDS011;26968;42.686;23.352;2023-06-22T00:23:53;14.63;;;11.07;;
41233;SDS011;26968;42.686;23.352;2023-06-22T00:26:19;14.02;;;10.93;;
41233;SDS011;26968;42.686;23.352;2023-06-22T00:28:45;14.50;;;11.00;;
41233;SDS011;26968;42.686;23.352;2023-06-22T00:31:11;19.00;;;11.57;;
41233;SDS011;26968;42.686;23.352;2023-06-22T00:33:37;18.52;;;11.18;;
41233;SDS011;26968;42.686;23.352;2023-06-22T00:36:02;15.40;;;10.80;;
41233;SDS011;26968;42.686;23.352;2023-06-22T00:38:28;19.52;;;11.20;;
41233;SDS011;26968;42.686;23.352;2023-06-22T00:40:53;17.23;;;11.13;;
41233;SDS011;26968;42.686;23.352;2023-06-22T00:43:19;15.68;;;11.43;;
41233;SDS011;26968;42.686;23.352;2023-06-22T00:45:44;16.65;;;10.93;;
41233;SDS011;26968;42.686;23.352;2023-06-22T00:48:10;17.58;;;10.90;;
41233;SDS011;26968;42.686;23.352;2023-06-22T00:50:37;20.48;;;10.77;;
41233;SDS011;26968;42.686;23.352;2023-06-22T00:53:05;20.75;;;11.57;;
41233;SDS011;26968;42.686;23.352;2023-06-22T00:55:33;15.50;;;10.32;;
41233;SDS011;26968;42.686;23.352;2023-06-22T00:58:03;15.85;;;11.13;;
41233;SDS011;26968;42.686;23.352;2023-06-22T01:00:30;13.75;;;10.40;;
41233;SDS011;26968;42.686;23.352;2023-06-22T01:02:57;16.58;;;11.68;;
41233;SDS011;26968;42.686;23.352;2023-06-22T01:05:23;18.52;;;12.07;;
41233;SDS011;26968;42.686;23.352;2023-06-22T01:10:44;19.38;;;11.60;;
41233;SDS011;26968;42.686;23.352;2023-06-22T01:13:28;14.32;;;11.20;;
41233;SDS011;26968;42.686;23.352;2023-06-22T01:18:55;20.63;;;12.07;;
41233;SDS011;26968;42.686;23.352;2023-06-22T01:21:25;18.50;;;11.03;;
41233;SDS011;26968;42.686;23.352;2023-06-22T01:24:09;17.80;;;11.37;;
41233;SDS011;26968;42.686;23.352;2023-06-22T01:26:43;18.60;;;11.10;;
41233;SDS011;26968;42.686;23.352;2023-06-22T01:29:26;19.65;;;11.45;;
41233;SDS011;26968;42.686;23.352;2023-06-22T01:31:54;21.48;;;11.02;;
41233;SDS011;26968;42.686;23.352;2023-06-22T01:34:22;17.88;;;12.02;;
41233;SDS011;26968;42.686;23.352;2023-06-22T01:36:48;22.52;;;12.95;;
41233;SDS011;26968;42.686;23.352;2023-06-22T01:39:15;16.48;;;12.02;;
41233;SDS011;26968;42.686;23.352;2023-06-22T01:41:42;17.30;;;12.55;;
41233;SDS011;26968;42.686;23.352;2023-06-22T01:44:08;29.23;;;13.73;;
41233;SDS011;26968;42.686;23.352;2023-06-22T01:46:34;21.50;;;12.95;;
41233;SDS011;26968;42.686;23.352;2023-06-22T01:49:01;25.55;;;15.88;;
41233;SDS011;26968;42.686;23.352;2023-06-22T01:51:28;22.92;;;15.20;;
41233;SDS011;26968;42.686;23.352;2023-06-22T01:53:53;23.30;;;14.73;;
41233;SDS011;26968;42.686;23.352;2023-06-22T01:56:19;21.08;;;14.63;;
41233;SDS011;26968;42.686;23.352;2023-06-22T01:58:52;22.98;;;14.68;;
41233;SDS011;26968;42.686;23.352;2023-06-22T02:01:24;23.48;;;14.13;;
41233;SDS011;26968;42.686;23.352;2023-06-22T02:06:36;22.73;;;14.52;;
41233;SDS011;26968;42.686;23.352;2023-06-22T02:09:06;20.10;;;13.55;;
41233;SDS011;26968;42.686;23.352;2023-06-22T02:11:35;18.33;;;12.48;;
41233;SDS011;26968;42.686;23.352;2023-06-22T02:14:02;28.25;;;12.52;;
41233;SDS011;26968;42.686;23.352;2023-06-22T02:16:28;23.48;;;13.20;;
41233;SDS011;26968;42.686;23.352;2023-06-22T02:18:56;22.92;;;12.70;;
41233;SDS011;26968;42.686;23.352;2023-06-22T02:21:23;21.50;;;12.80;;
41233;SDS011;26968;42.686;23.352;2023-06-22T02:23:48;18.30;;;12.13;;
41233;SDS011;26968;42.686;23.352;2023-06-22T02:26:15;17.83;;;12.77;;
41233;SDS011;26968;42.686;23.352;2023-06-22T02:28:42;30.45;;;13.00;;
41233;SDS011;26968;42.686;23.352;2023-06-22T02:31:07;17.38;;;11.15;;
41233;SDS011;26968;42.686;23.352;2023-06-22T02:33:33;21.45;;;11.95;;
41233;SDS011;26968;42.686;23.352;2023-06-22T02:35:58;19.10;;;12.73;;
41233;SDS011;26968;42.686;23.352;2023-06-22T02:38:24;18.35;;;11.02;;
41233;SDS011;26968;42.686;23.352;2023-06-22T02:40:50;15.80;;;10.75;;
41233;SDS011;26968;42.686;23.352;2023-06-22T02:43:16;20.38;;;11.30;;
41233;SDS011;26968;42.686;23.352;2023-06-22T02:45:41;15.60;;;10.45;;
41233;SDS011;26968;42.686;23.352;2023-06-22T02:48:06;17.63;;;11.85;;
41233;SDS011;26968;42.686;23.352;2023-06-22T02:50:32;16.85;;;11.23;;
41233;SDS011;26968;42.686;23.352;2023-06-22T02:52:57;18.83;;;11.45;;
41233;SDS011;26968;42.686;23.352;2023-06-22T02:55:23;18.00;;;10.80;;
41233;SDS011;26968;42.686;23.352;2023-06-22T02:57:49;16.15;;;11.38;;
41233;SDS011;26968;42.686;23.352;2023-06-22T03:00:17;18.27;;;11.18;;
41233;SDS011;26968;42.686;23.352;2023-06-22T03:02:45;16.65;;;11.30;;
41233;SDS011;26968;42.686;23.352;2023-06-22T03:05:11;19.92;;;11.65;;
41233;SDS011;26968;42.686;23.352;2023-06-22T03:07:41;16.90;;;11.43;;
41233;SDS011;26968;42.686;23.352;2023-06-22T03:10:08;17.35;;;12.18;;
41233;SDS011;26968;42.686;23.352;2023-06-22T03:12:35;24.02;;;11.57;;
41233;SDS011;26968;42.686;23.352;2023-06-22T03:15:01;18.90;;;11.88;;
41233;SDS011;26968;42.686;23.352;2023-06-22T03:17:26;22.13;;;13.32;;
41233;SDS011;26968;42.686;23.352;2023-06-22T03:19:52;21.73;;;11.95;;
41233;SDS011;26968;42.686;23.352;2023-06-22T03:22:17;21.23;;;11.60;;
41233;SDS011;26968;42.686;23.352;2023-06-22T03:24:43;20.40;;;11.98;;
41233;SDS011;26968;42.686;23.352;2023-06-22T03:27:08;25.95;;;11.70;;
41233;SDS011;26968;42.686;23.352;2023-06-22T03:29:34;14.95;;;10.43;;
41233;SDS011;26968;42.686;23.352;2023-06-22T03:31:59;19.80;;;11.18;;
41233;SDS011;26968;42.686;23.352;2023-06-22T03:34:24;19.75;;;12.10;;
41233;SDS011;26968;42.686;23.352;2023-06-22T03:36:50;21.15;;;11.90;;
41233;SDS011;26968;42.686;23.352;2023-06-22T03:39:16;18.25;;;10.88;;
41233;SDS011;26968;42.686;23.352;2023-06-22T03:41:41;22.92;;;12.20;;
41233;SDS011;26968;42.686;23.352;2023-06-22T03:44:06;18.13;;;11.73;;
41233;SDS011;26968;42.686;23.352;2023-06-22T03:46:35;23.52;;;13.00;;
41233;SDS011;26968;42.686;23.352;2023-06-22T03:49:00;19.85;;;12.43;;
41233;SDS011;26968;42.686;23.352;2023-06-22T03:51:28;20.80;;;11.90;;
41233;SDS011;26968;42.686;23.352;2023-06-22T03:53:53;23.17;;;13.20;;
41233;SDS011;26968;42.686;23.352;2023-06-22T03:56:19;17.77;;;11.68;;
41233;SDS011;26968;42.686;23.352;2023-06-22T03:58:45;22.48;;;11.40;;
41233;SDS011;26968;42.686;23.352;2023-06-22T04:01:11;21.35;;;11.57;;
41233;SDS011;26968;42.686;23.352;2023-06-22T04:03:37;19.30;;;11.65;;
41233;SDS011;26968;42.686;23.352;2023-06-22T04:06:03;16.40;;;11.70;;
41233;SDS011;26968;42.686;23.352;2023-06-22T04:08:29;17.50;;;11.73;;
41233;SDS011;26968;42.686;23.352;2023-06-22T04:10:54;19.08;;;11.98;;
41233;SDS011;26968;42.686;23.352;2023-06-22T04:13:20;17.38;;;12.13;;
41233;SDS011;26968;42.686;23.352;2023-06-22T04:15:45;20.83;;;11.43;;
41233;SDS011;26968;42.686;23.352;2023-06-22T04:18:12;22.55;;;11.60;;
41233;SDS011;26968;42.686;23.352;2023-06-22T04:20:38;22.23;;;12.32;;
41233;SDS011;26968;42.686;23.352;2023-06-22T04:23:04;17.58;;;10.98;;
41233;SDS011;26968;42.686;23.352;2023-06-22T04:25:30;31.42;;;12.40;;
41233;SDS011;26968;42.686;23.352;2023-06-22T04:27:55;18.80;;;12.25;;
41233;SDS011;26968;42.686;23.352;2023-06-22T04:30:21;23.20;;;12.73;;
41233;SDS011;26968;42.686;23.352;2023-06-22T04:32:47;22.88;;;12.30;;
41233;SDS011;26968;42.686;23.352;2023-06-22T04:35:21;22.42;;;11.65;;
41233;SDS011;26968;42.686;23.352;2023-06-22T04:37:50;22.15;;;12.60;;
41233;SDS011;26968;42.686;23.352;2023-06-22T04:40:19;22.67;;;13.40;;
41233;SDS011;26968;42.686;23.352;2023-06-22T04:42:46;22.05;;;13.13;;
41233;SDS011;26968;42.686;23.352;2023-06-22T04:45:17;22.50;;;14.27;;
41233;SDS011;26968;42.686;23.352;2023-06-22T04:47:43;31.13;;;14.85;;
41233;SDS011;26968;42.686;23.352;2023-06-22T04:50:10;26.65;;;14.60;;
41233;SDS011;26968;42.686;23.352;2023-06-22T04:52:39;34.67;;;16.42;;
41233;SDS011;26968;42.686;23.352;2023-06-22T04:55:04;25.45;;;15.68;;
41233;SDS011;26968;42.686;23.352;2023-06-22T04:57:30;25.98;;;15.27;;
41233;SDS011;26968;42.686;23.352;2023-06-22T05:00:00;29.73;;;17.08;;
41233;SDS011;26968;42.686;23.352;2023-06-22T05:02:37;29.35;;;14.27;;
41233;SDS011;26968;42.686;23.352;2023-06-22T05:05:04;19.27;;;14.10;;
41233;SDS011;26968;42.686;23.352;2023-06-22T05:07:35;22.55;;;14.18;;
41233;SDS011;26968;42.686;23.352;2023-06-22T05:10:04;20.90;;;14.10;;
41233;SDS011;26968;42.686;23.352;2023-06-22T05:12:30;19.50;;;14.02;;
41233;SDS011;26968;42.686;23.352;2023-06-22T05:14:56;21.17;;;14.25;;
41233;SDS011;26968;42.686;23.352;2023-06-22T05:17:23;29.38;;;14.50;;
41233;SDS011;26968;42.686;23.352;2023-06-22T05:19:49;21.95;;;13.82;;
41233;SDS011;26968;42.686;23.352;2023-06-22T05:22:15;25.98;;;14.68;;
41233;SDS011;26968;42.686;23.352;2023-06-22T05:24:41;21.58;;;13.40;;
41233;SDS011;26968;42.686;23.352;2023-06-22T05:27:07;19.27;;;13.43;;
41233;SDS011;26968;42.686;23.352;2023-06-22T05:29:33;23.25;;;13.98;;
41233;SDS011;26968;42.686;23.352;2023-06-22T05:31:58;23.85;;;14.70;;
41233;SDS011;26968;42.686;23.352;2023-06-22T05:34:25;26.90;;;15.15;;
41233;SDS011;26968;42.686;23.352;2023-06-22T05:36:51;21.58;;;13.65;;
41233;SDS011;26968;42.686;23.352;2023-06-22T05:39:16;18.50;;;13.73;;
41233;SDS011;26968;42.686;23.352;2023-06-22T05:41:42;24.23;;;14.13;;
41233;SDS011;26968;42.686;23.352;2023-06-22T05:44:12;24.47;;;16.30;;
41233;SDS011;26968;42.686;23.352;2023-06-22T05:46:43;26.27;;;15.40;;
41233;SDS011;26968;42.686;23.352;2023-06-22T05:49:09;24.48;;;14.80;;
41233;SDS011;26968;42.686;23.352;2023-06-22T05:51:36;30.95;;;15.70;;
41233;SDS011;26968;42.686;23.352;2023-06-22T05:54:01;29.75;;;15.23;;
41233;SDS011;26968;42.686;23.352;2023-06-22T05:56:28;27.55;;;15.05;;
41233;SDS011;26968;42.686;23.352;2023-06-22T05:58:54;21.33;;;12.90;;
41233;SDS011;26968;42.686;23.352;2023-06-22T06:01:19;24.48;;;14.15;;
41233;SDS011;26968;42.686;23.352;2023-06-22T06:03:45;20.45;;;13.23;;
41233;SDS011;26968;42.686;23.352;2023-06-22T06:06:10;21.20;;;13.20;;
41233;SDS011;26968;42.686;23.352;2023-06-22T06:08:38;22.95;;;12.95;;
41233;SDS011;26968;42.686;23.352;2023-06-22T06:11:04;18.55;;;13.68;;
41233;SDS011;26968;42.686;23.352;2023-06-22T06:13:29;21.88;;;14.23;;
41233;SDS011;26968;42.686;23.352;2023-06-22T06:15:55;20.90;;;15.70;;
41233;SDS011;26968;42.686;23.352;2023-06-22T06:18:21;27.98;;;16.20;;
41233;SDS011;26968;42.686;23.352;2023-06-22T06:20:47;26.50;;;16.42;;
41233;SDS011;26968;42.686;23.352;2023-06-22T06:23:12;21.25;;;14.63;;
41233;SDS011;26968;42.686;23.352;2023-06-22T06:25:38;19.10;;;14.90;;
41233;SDS011;26968;42.686;23.352;2023-06-22T06:28:03;16.35;;;13.70;;
41233;SDS011;26968;42.686;23.352;2023-06-22T06:30:29;20.92;;;14.32;;
41233;SDS011;26968;42.686;23.352;2023-06-22T06:32:55;22.65;;;13.82;;
41233;SDS011;26968;42.686;23.352;2023-06-22T06:35:20;19.70;;;13.60;;
41233;SDS011;26968;42.686;23.352;2023-06-22T06:37:47;24.73;;;15.70;;
41233;SDS011;26968;42.686;23.352;2023-06-22T06:40:15;19.75;;;13.98;;
41233;SDS011;26968;42.686;23.352;2023-06-22T06:42:42;22.15;;;15.07;;
41233;SDS011;26968;42.686;23.352;2023-06-22T06:45:23;22.65;;;13.75;;
41233;SDS011;26968;42.686;23.352;2023-06-22T06:47:49;24.40;;;14.88;;
41233;SDS011;26968;42.686;23.352;2023-06-22T06:50:16;21.13;;;14.10;;
41233;SDS011;26968;42.686;23.352;2023-06-22T06:52:41;19.60;;;12.70;;
41233;SDS011;26968;42.686;23.352;2023-06-22T06:55:08;23.00;;;14.55;;
41233;SDS011;26968;42.686;23.352;2023-06-22T06:57:37;18.95;;;13.57;;
41233;SDS011;26968;42.686;23.352;2023-06-22T07:00:07;22.15;;;12.63;;
41233;SDS011;26968;42.686;23.352;2023-06-22T07:02:37;24.45;;;13.27;;
41233;SDS011;26968;42.686;23.352;2023-06-22T07:05:05;18.08;;;12.57;;
41233;SDS011;26968;42.686;23.352;2023-06-22T07:07:30;20.63;;;13.07;;
41233;SDS011;26968;42.686;23.352;2023-06-22T07:09:56;21.52;;;12.75;;
41233;SDS011;26968;42.686;23.352;2023-06-22T07:12:23;40.80;;;12.70;;
41233;SDS011;26968;42.686;23.352;2023-06-22T07:14:48;21.60;;;12.73;;
41233;SDS011;26968;42.686;23.352;2023-06-22T07:17:15;17.30;;;12.60;;
41233;SDS011;26968;42.686;23.352;2023-06-22T07:19:40;19.33;;;12.15;;
41233;SDS011;26968;42.686;23.352;2023-06-22T07:22:08;16.42;;;13.00;;
41233;SDS011;26968;42.686;23.352;2023-06-22T07:24:33;25.77;;;13.52;;
41233;SDS011;26968;42.686;23.352;2023-06-22T07:26:59;21.33;;;13.20;;
41233;SDS011;26968;42.686;23.352;2023-06-22T07:29:25;22.45;;;13.00;;
41233;SDS011;26968;42.686;23.352;2023-06-22T07:31:51;25.20;;;13.48;;
41233;SDS011;26968;42.686;23.352;2023-06-22T07:34:17;23.92;;;13.77;;
41233;SDS011;26968;42.686;23.352;2023-06-22T07:36:43;23.00;;;12.75;;
41233;SDS011;26968;42.686;23.352;2023-06-22T07:39:09;21.88;;;13.60;;
41233;SDS011;26968;42.686;23.352;2023-06-22T07:41:35;21.52;;;13.32;;
41233;SDS011;26968;42.686;23.352;2023-06-22T07:44:01;20.05;;;12.50;;
41233;SDS011;26968;42.686;23.352;2023-06-22T07:46:28;27.45;;;13.57;;
41233;SDS011;26968;42.686;23.352;2023-06-22T07:48:55;21.02;;;13.35;;
41233;SDS011;26968;42.686;23.352;2023-06-22T07:51:21;27.70;;;14.07;;
41233;SDS011;26968;42.686;23.352;2023-06-22T07:53:47;19.83;;;12.82;;
41233;SDS011;26968;42.686;23.352;2023-06-22T07:56:12;27.95;;;11.55;;
41233;SDS011;26968;42.686;23.352;2023-06-22T07:58:38;24.38;;;12.60;;
41233;SDS011;26968;42.686;23.352;2023-06-22T08:01:04;21.20;;;12.43;;
41233;SDS011;26968;42.686;23.352;2023-06-22T08:03:29;22.10;;;12.98;;
41233;SDS011;26968;42.686;23.352;2023-06-22T08:05:55;21.10;;;13.82;;
41233;SDS011;26968;42.686;23.352;2023-06-22T08:08:21;30.65;;;13.13;;
41233;SDS011;26968;42.686;23.352;2023-06-22T08:10:46;17.40;;;12.98;;
41233;SDS011;26968;42.686;23.352;2023-06-22T08:13:12;22.70;;;12.40;;
41233;SDS011;26968;42.686;23.352;2023-06-22T08:15:37;25.85;;;12.93;;
41233;SDS011;26968;42.686;23.352;2023-06-22T08:18:03;29.77;;;14.18;;
41233;SDS011;26968;42.686;23.352;2023-06-22T08:20:29;30.08;;;14.77;;
41233;SDS011;26968;42.686;23.352;2023-06-22T08:22:56;28.95;;;16.40;;
41233;SDS011;26968;42.686;23.352;2023-06-22T08:25:23;33.42;;;14.43;;
41233;SDS011;26968;42.686;23.352;2023-06-22T08:27:49;25.58;;;14.85;;
41233;SDS011;26968;42.686;23.352;2023-06-22T08:30:14;29.27;;;14.73;;
41233;SDS011;26968;42.686;23.352;2023-06-22T08:32:40;24.63;;;14.10;;
41233;SDS011;26968;42.686;23.352;2023-06-22T08:35:06;25.55;;;14.00;;
41233;SDS011;26968;42.686;23.352;2023-06-22T08:37:34;25.77;;;14.15;;
41233;SDS011;26968;42.686;23.352;2023-06-22T08:40:05;34.58;;;14.68;;
41233;SDS011;26968;42.686;23.352;2023-06-22T08:42:33;22.92;;;12.55;;
41233;SDS011;26968;42.686;23.352;2023-06-22T08:44:59;25.48;;;12.88;;
41233;SDS011;26968;42.686;23.352;2023-06-22T08:47:24;23.83;;;12.98;;
41233;SDS011;26968;42.686;23.352;2023-06-22T08:49:50;20.88;;;12.23;;
41233;SDS011;26968;42.686;23.352;2023-06-22T08:52:16;22.70;;;11.93;;
41233;SDS011;26968;42.686;23.352;2023-06-22T08:54:42;24.48;;;13.07;;
41233;SDS011;26968;42.686;23.352;2023-06-22T08:57:08;25.52;;;14.13;;
41233;SDS011;26968;42.686;23.352;2023-06-22T08:59:35;21.13;;;12.25;;
41233;SDS011;26968;42.686;23.352;2023-06-22T09:02:00;26.00;;;12.48;;
41233;SDS011;26968;42.686;23.352;2023-06-22T09:04:25;34.00;;;13.25;;
41233;SDS011;26968;42.686;23.352;2023-06-22T09:06:51;17.70;;;12.00;;
41233;SDS011;26968;42.686;23.352;2023-06-22T09:09:21;18.00;;;11.60;;
41233;SDS011;26968;42.686;23.352;2023-06-22T09:11:46;18.45;;;11.75;;
41233;SDS011;26968;42.686;23.352;2023-06-22T09:14:12;19.40;;;11.75;;
41233;SDS011;26968;42.686;23.352;2023-06-22T09:16:37;18.88;;;11.07;;
41233;SDS011;26968;42.686;23.352;2023-06-22T09:19:03;13.98;;;10.30;;
41233;SDS011;26968;42.686;23.352;2023-06-22T09:21:28;21.38;;;12.07;;
41233;SDS011;26968;42.686;23.352;2023-06-22T09:23:54;17.48;;;11.25;;
41233;SDS011;26968;42.686;23.352;2023-06-22T09:26:20;18.92;;;11.15;;
41233;SDS011;26968;42.686;23.352;2023-06-22T09:28:46;12.45;;;9.75;;
41233;SDS011;26968;42.686;23.352;2023-06-22T09:31:13;20.60;;;10.95;;
41233;SDS011;26968;42.686;23.352;2023-06-22T09:33:40;19.05;;;11.48;;
41233;SDS011;26968;42.686;23.352;2023-06-22T09:36:06;19.08;;;11.40;;
41233;SDS011;26968;42.686;23.352;2023-06-22T09:38:38;19.23;;;11.32;;
41233;SDS011;26968;42.686;23.352;2023-06-22T09:41:04;14.75;;;12.18;;
41233;SDS011;26968;42.686;23.352;2023-06-22T09:43:31;15.80;;;11.10;;
41233;SDS011;26968;42.686;23.352;2023-06-22T09:45:57;15.00;;;10.43;;
41233;SDS011;26968;42.686;23.352;2023-06-22T09:48:22;13.65;;;10.93;;
41233;SDS011;26968;42.686;23.352;2023-06-22T09:50:48;16.52;;;11.10;;
41233;SDS011;26968;42.686;23.352;2023-06-22T09:53:15;19.75;;;12.02;;
41233;SDS011;26968;42.686;23.352;2023-06-22T09:55:41;15.25;;;10.60;;
41233;SDS011;26968;42.686;23.352;2023-06-22T09:58:06;19.48;;;10.75;;
41233;SDS011;26968;42.686;23.352;2023-06-22T10:00:32;17.08;;;10.23;;
41233;SDS011;26968;42.686;23.352;2023-06-22T10:02:57;16.33;;;10.32;;
41233;SDS011;26968;42.686;23.352;2023-06-22T10:05:23;14.50;;;9.68;;
41233;SDS011;26968;42.686;23.352;2023-06-22T10:07:48;15.50;;;9.07;;
41233;SDS011;26968;42.686;23.352;2023-06-22T10:10:14;15.65;;;10.10;;
41233;SDS011;26968;42.686;23.352;2023-06-22T10:12:47;14.00;;;8.70;;
41233;SDS011;26968;42.686;23.352;2023-06-22T10:15:19;16.88;;;9.35;;
41233;SDS011;26968;42.686;23.352;2023-06-22T10:17:46;18.88;;;9.48;;
41233;SDS011;26968;42.686;23.352;2023-06-22T10:20:11;11.48;;;7.63;;
41233;SDS011;26968;42.686;23.352;2023-06-22T10:22:41;9.85;;;8.35;;
41233;SDS011;26968;42.686;23.352;2023-06-22T10:27:34;10.65;;;7.70;;
41233;SDS011;26968;42.686;23.352;2023-06-22T10:30:00;10.52;;;8.25;;
41233;SDS011;26968;42.686;23.352;2023-06-22T10:32:25;8.57;;;7.50;;
41233;SDS011;26968;42.686;23.352;2023-06-22T10:34:53;9.70;;;7.75;;
41233;SDS011;26968;42.686;23.352;2023-06-22T10:37:18;13.98;;;8.20;;
41233;SDS011;26968;42.686;23.352;2023-06-22T10:39:43;11.15;;;7.13;;
41233;SDS011;26968;42.686;23.352;2023-06-22T10:42:09;13.40;;;7.75;;
41233;SDS011;26968;42.686;23.352;2023-06-22T10:44:34;12.55;;;7.22;;
41233;SDS011;26968;42.686;23.352;2023-06-22T10:47:00;12.88;;;7.82;;
41233;SDS011;26968;42.686;23.352;2023-06-22T10:49:25;11.05;;;8.23;;
41233;SDS011;26968;42.686;23.352;2023-06-22T10:51:51;9.55;;;7.60;;
41233;SDS011;26968;42.686;23.352;2023-06-22T10:54:16;13.15;;;7.55;;
41233;SDS011;26968;42.686;23.352;2023-06-22T10:56:43;8.43;;;6.93;;
41233;SDS011;26968;42.686;23.352;2023-06-22T10:59:09;8.82;;;6.95;;
41233;SDS011;26968;42.686;23.352;2023-06-22T11:01:34;9.30;;;7.28;;
41233;SDS011;26968;42.686;23.352;2023-06-22T11:04:00;9.48;;;7.22;;
41233;SDS011;26968;42.686;23.352;2023-06-22T11:06:25;14.68;;;7.28;;
41233;SDS011;26968;42.686;23.352;2023-06-22T11:08:51;9.88;;;8.13;;
41233;SDS011;26968;42.686;23.352;2023-06-22T11:11:16;9.73;;;6.90;;
41233;SDS011;26968;42.686;23.352;2023-06-22T11:13:45;14.13;;;8.25;;
41233;SDS011;26968;42.686;23.352;2023-06-22T11:16:10;12.55;;;7.15;;
41233;SDS011;26968;42.686;23.352;2023-06-22T11:18:36;9.05;;;7.25;;
41233;SDS011;26968;42.686;23.352;2023-06-22T11:21:01;9.38;;;6.93;;
41233;SDS011;26968;42.686;23.352;2023-06-22T11:23:28;8.75;;;7.22;;
41233;SDS011;26968;42.686;23.352;2023-06-22T11:25:54;12.07;;;7.65;;
41233;SDS011;26968;42.686;23.352;2023-06-22T11:28:19;13.40;;;8.00;;
41233;SDS011;26968;42.686;23.352;2023-06-22T11:30:45;10.38;;;6.75;;
41233;SDS011;26968;42.686;23.352;2023-06-22T11:33:10;14.73;;;8.15;;
41233;SDS011;26968;42.686;23.352;2023-06-22T11:35:36;12.27;;;7.82;;
41233;SDS011;26968;42.686;23.352;2023-06-22T11:38:02;8.77;;;7.30;;
41233;SDS011;26968;42.686;23.352;2023-06-22T11:40:29;11.15;;;7.25;;
41233;SDS011;26968;42.686;23.352;2023-06-22T11:42:54;9.95;;;6.65;;
41233;SDS011;26968;42.686;23.352;2023-06-22T11:45:20;11.05;;;6.90;;
41233;SDS011;26968;42.686;23.352;2023-06-22T11:47:46;15.85;;;7.68;;
41233;SDS011;26968;42.686;23.352;2023-06-22T11:50:12;8.80;;;7.85;;
41233;SDS011;26968;42.686;23.352;2023-06-22T11:52:37;8.70;;;6.65;;
41233;SDS011;26968;42.686;23.352;2023-06-22T11:55:03;9.52;;;7.22;;
41233;SDS011;26968;42.686;23.352;2023-06-22T11:57:32;12.93;;;7.40;;
41233;SDS011;26968;42.686;23.352;2023-06-22T11:59:59;11.15;;;7.57;;
41233;SDS011;26968;42.686;23.352;2023-06-22T12:02:24;9.00;;;7.05;;
41233;SDS011;26968;42.686;23.352;2023-06-22T12:04:50;9.80;;;6.80;;
41233;SDS011;26968;42.686;23.352;2023-06-22T12:07:17;8.93;;;6.68;;
41233;SDS011;26968;42.686;23.352;2023-06-22T12:09:43;11.82;;;6.65;;
41233;SDS011;26968;42.686;23.352;2023-06-22T12:12:09;8.70;;;7.18;;
41233;SDS011;26968;42.686;23.352;2023-06-22T12:14:35;9.48;;;6.72;;
41233;SDS011;26968;42.686;23.352;2023-06-22T12:17:00;9.80;;;7.00;;
41233;SDS011;26968;42.686;23.352;2023-06-22T12:19:26;12.63;;;7.88;;
41233;SDS011;26968;42.686;23.352;2023-06-22T12:21:52;10.90;;;8.52;;
41233;SDS011;26968;42.686;23.352;2023-06-22T12:24:17;10.60;;;7.47;;
41233;SDS011;26968;42.686;23.352;2023-06-22T12:26:42;8.20;;;7.13;;
41233;SDS011;26968;42.686;23.352;2023-06-22T12:29:08;11.23;;;7.80;;
41233;SDS011;26968;42.686;23.352;2023-06-22T12:31:34;20.13;;;8.18;;
41233;SDS011;26968;42.686;23.352;2023-06-22T12:34:00;14.88;;;8.52;;
41233;SDS011;26968;42.686;23.352;2023-06-22T12:36:26;11.57;;;7.93;;
41233;SDS011;26968;42.686;23.352;2023-06-22T12:38:51;15.00;;;8.30;;
41233;SDS011;26968;42.686;23.352;2023-06-22T12:41:16;15.73;;;8.85;;
41233;SDS011;26968;42.686;23.352;2023-06-22T12:43:42;14.63;;;8.07;;
41233;SDS011;26968;42.686;23.352;2023-06-22T12:46:07;11.65;;;8.68;;
41233;SDS011;26968;42.686;23.352;2023-06-22T12:48:33;15.55;;;10.05;;
41233;SDS011;26968;42.686;23.352;2023-06-22T12:50:58;11.13;;;9.52;;
41233;SDS011;26968;42.686;23.352;2023-06-22T12:53:24;15.10;;;9.48;;
41233;SDS011;26968;42.686;23.352;2023-06-22T12:55:52;17.25;;;8.93;;
41233;SDS011;26968;42.686;23.352;2023-06-22T12:58:17;17.70;;;9.43;;
41233;SDS011;26968;42.686;23.352;2023-06-22T13:00:43;12.93;;;9.00;;
41233;SDS011;26968;42.686;23.352;2023-06-22T13:03:08;26.40;;;11.90;;
41233;SDS011;26968;42.686;23.352;2023-06-22T13:05:34;14.85;;;10.65;;
41233;SDS011;26968;42.686;23.352;2023-06-22T13:08:01;17.95;;;10.60;;
41233;SDS011;26968;42.686;23.352;2023-06-22T13:10:26;18.30;;;11.82;;
41233;SDS011;26968;42.686;23.352;2023-06-22T13:12:52;16.02;;;10.65;;
41233;SDS011;26968;42.686;23.352;2023-06-22T13:15:25;14.80;;;10.77;;
41233;SDS011;26968;42.686;23.352;2023-06-22T13:17:50;13.00;;;10.90;;
41233;SDS011;26968;42.686;23.352;2023-06-22T13:20:16;22.02;;;10.77;;
41233;SDS011;26968;42.686;23.352;2023-06-22T13:22:41;17.25;;;11.35;;
41233;SDS011;26968;42.686;23.352;2023-06-22T13:25:09;19.92;;;11.55;;
41233;SDS011;26968;42.686;23.352;2023-06-22T13:27:41;20.98;;;12.77;;
41233;SDS011;26968;42.686;23.352;2023-06-22T13:30:07;22.75;;;12.18;;
41233;SDS011;26968;42.686;23.352;2023-06-22T13:32:33;20.17;;;12.15;;
41233;SDS011;26968;42.686;23.352;2023-06-22T13:34:59;21.25;;;11.77;;
41233;SDS011;26968;42.686;23.352;2023-06-22T13:37:25;17.73;;;11.23;;
41233;SDS011;26968;42.686;23.352;2023-06-22T13:39:51;17.17;;;11.27;;
41233;SDS011;26968;42.686;23.352;2023-06-22T13:42:16;20.40;;;12.02;;
41233;SDS011;26968;42.686;23.352;2023-06-22T13:44:42;16.90;;;11.55;;
41233;SDS011;26968;42.686;23.352;2023-06-22T13:47:07;17.92;;;11.40;;
41233;SDS011;26968;42.686;23.352;2023-06-22T13:49:33;18.77;;;12.25;;
41233;SDS011;26968;42.686;23.352;2023-06-22T13:51:59;23.95;;;11.77;;
41233;SDS011;26968;42.686;23.352;2023-06-22T13:54:24;20.27;;;12.15;;
41233;SDS011;26968;42.686;23.352;2023-06-22T13:56:50;17.83;;;11.07;;
41233;SDS011;26968;42.686;23.352;2023-06-22T13:59:15;16.13;;;12.00;;
41233;SDS011;26968;42.686;23.352;2023-06-22T14:01:41;21.45;;;12.18;;
41233;SDS011;26968;42.686;23.352;2023-06-22T14:04:08;17.92;;;11.82;;
41233;SDS011;26968;42.686;23.352;2023-06-22T14:06:33;20.52;;;12.13;;
41233;SDS011;26968;42.686;23.352;2023-06-22T14:09:00;17.23;;;12.18;;
41233;SDS011;26968;42.686;23.352;2023-06-22T14:11:25;19.35;;;11.38;;
41233;SDS011;26968;42.686;23.352;2023-06-22T14:13:51;22.20;;;12.60;;
41233;SDS011;26968;42.686;23.352;2023-06-22T14:16:16;19.33;;;12.10;;
41233;SDS011;26968;42.686;23.352;2023-06-22T14:18:42;18.83;;;11.82;;
41233;SDS011;26968;42.686;23.352;2023-06-22T14:21:07;15.75;;;11.63;;